createdAt,value
2022-12-06T00:01:35.942Z,18.53
2022-12-06T00:04:04.284Z,16.73
2022-12-06T00:06:33.129Z,16.47
2022-12-06T00:09:01.198Z,16.90
2022-12-06T00:11:29.636Z,17.23
2022-12-06T00:13:57.675Z,14.07
2022-12-06T00:16:27.281Z,14.40
2022-12-06T00:18:55.201Z,14.37
2022-12-06T00:21:24.544Z,15.73
2022-12-06T00:23:52.948Z,14.90
2022-12-06T00:26:20.912Z,14.83
2022-12-06T00:28:48.437Z,15.33
2022-12-06T00:31:16.549Z,14.87
2022-12-06T00:33:45.621Z,14.17
2022-12-06T00:36:13.756Z,14.37
2022-12-06T00:38:41.357Z,15.37
2022-12-06T00:41:10.213Z,14.13
2022-12-06T00:43:38.283Z,14.17
2022-12-06T00:46:06.538Z,17.40
2022-12-06T00:48:34.312Z,17.60
2022-12-06T00:51:03.137Z,16.07
2022-12-06T00:53:30.875Z,16.03
2022-12-06T00:55:58.373Z,15.20
2022-12-06T00:58:25.936Z,15.40
2022-12-06T01:00:53.791Z,16.03
2022-12-06T01:03:21.422Z,15.57
2022-12-06T01:05:50.386Z,16.97
2022-12-06T01:08:19.856Z,16.60
2022-12-06T01:10:52.993Z,16.00
2022-12-06T01:13:20.589Z,14.70
2022-12-06T01:15:48.174Z,15.30
2022-12-06T01:18:15.763Z,15.63
2022-12-06T01:20:43.282Z,15.40
2022-12-06T01:23:10.804Z,15.03
2022-12-06T01:25:39.674Z,14.40
2022-12-06T01:28:07.479Z,14.63
2022-12-06T01:30:35.012Z,14.13
2022-12-06T01:33:02.557Z,14.70
2022-12-06T01:35:30.115Z,14.27
2022-12-06T01:38:01.605Z,14.20
2022-12-06T01:40:37.143Z,14.30
2022-12-06T01:43:07.165Z,14.40
2022-12-06T01:45:34.669Z,14.47
2022-12-06T01:48:02.213Z,15.40
2022-12-06T01:50:32.776Z,14.60
2022-12-06T01:53:02.024Z,14.30
2022-12-06T01:55:31.845Z,13.93
2022-12-06T01:58:01.107Z,15.17
2022-12-06T02:00:29.963Z,15.53
2022-12-06T02:02:59.613Z,14.90
2022-12-06T02:05:27.309Z,15.27
2022-12-06T02:07:55.052Z,15.80
2022-12-06T02:10:23.099Z,15.13
2022-12-06T02:12:53.776Z,16.87
2022-12-06T02:15:22.165Z,15.83
2022-12-06T02:17:55.306Z,15.70
2022-12-06T02:20:26.298Z,16.10
2022-12-06T02:23:21.892Z,16.07
2022-12-06T02:25:59.843Z,16.37
2022-12-06T02:28:39.472Z,15.97
2022-12-06T02:31:09.853Z,15.47
2022-12-06T02:33:45.019Z,14.83
2022-12-06T02:36:16.325Z,14.97
2022-12-06T02:38:45.433Z,15.93
2022-12-06T02:41:22.184Z,14.87
2022-12-06T02:43:52.505Z,14.67
2022-12-06T02:46:23.019Z,15.67
2022-12-06T02:48:52.910Z,14.70
2022-12-06T02:51:20.831Z,15.37
2022-12-06T02:53:49.515Z,14.87
2022-12-06T02:56:17.783Z,14.65
2022-12-06T02:58:45.356Z,15.07
2022-12-06T03:01:13.800Z,15.87
2022-12-06T03:03:50.402Z,15.13
2022-12-06T03:06:26.057Z,15.13
2022-12-06T03:09:00.741Z,15.57
2022-12-06T03:11:30.020Z,16.07
2022-12-06T03:14:02.338Z,15.13
2022-12-06T03:16:31.100Z,15.33
2022-12-06T03:19:04.306Z,16.07
2022-12-06T03:21:34.387Z,15.80
2022-12-06T03:24:01.932Z,15.37
2022-12-06T03:26:32.088Z,16.47
2022-12-06T03:29:01.129Z,16.47
2022-12-06T03:31:29.883Z,15.33
2022-12-06T03:33:59.374Z,15.90
2022-12-06T03:36:28.852Z,16.33
2022-12-06T03:38:56.876Z,16.00
2022-12-06T03:41:26.741Z,15.93
2022-12-06T03:43:54.391Z,16.20
2022-12-06T03:46:22.645Z,14.73
2022-12-06T03:48:51.620Z,14.87
2022-12-06T03:51:21.371Z,15.00
2022-12-06T03:53:52.046Z,16.37
2022-12-06T03:56:19.551Z,13.63
2022-12-06T03:58:47.220Z,15.20
2022-12-06T04:01:14.761Z,14.30
2022-12-06T04:03:42.374Z,15.47
2022-12-06T04:06:10.505Z,16.37
2022-12-06T04:08:38.066Z,15.57
2022-12-06T04:11:07.658Z,14.67
2022-12-06T04:13:35.655Z,16.10
2022-12-06T04:16:03.646Z,15.07
2022-12-06T04:18:30.214Z,15.87
2022-12-06T04:21:31.093Z,15.20
2022-12-06T04:23:58.846Z,15.43
2022-12-06T04:26:27.892Z,15.83
2022-12-06T04:29:13.126Z,14.60
2022-12-06T04:31:58.842Z,14.60
2022-12-06T04:34:43.851Z,14.93
2022-12-06T04:37:28.821Z,15.37
2022-12-06T04:39:56.625Z,15.37
2022-12-06T04:42:57.433Z,15.70
2022-12-06T04:45:24.967Z,15.30
2022-12-06T04:47:53.645Z,15.00
2022-12-06T04:50:21.157Z,15.17
2022-12-06T04:52:48.666Z,14.87
2022-12-06T04:55:16.330Z,15.80
2022-12-06T04:57:45.262Z,15.77
2022-12-06T05:00:13.302Z,15.93
2022-12-06T05:02:40.843Z,15.60
2022-12-06T05:05:08.955Z,15.67
2022-12-06T05:07:36.741Z,15.13
2022-12-06T05:10:04.689Z,14.87
2022-12-06T05:12:32.182Z,15.47
2022-12-06T05:15:00.980Z,14.00
2022-12-06T05:17:28.479Z,14.03
2022-12-06T05:19:56.050Z,14.30
2022-12-06T05:22:23.650Z,14.90
2022-12-06T05:24:51.763Z,14.83
2022-12-06T05:27:19.318Z,14.30
2022-12-06T05:29:46.907Z,14.37
2022-12-06T05:32:19.546Z,14.83
2022-12-06T05:34:47.257Z,14.50
2022-12-06T05:37:15.105Z,13.23
2022-12-06T05:39:42.681Z,14.83
2022-12-06T05:42:19.877Z,14.50
2022-12-06T05:44:49.851Z,14.13
2022-12-06T05:47:18.711Z,14.80
2022-12-06T05:49:46.771Z,14.37
2022-12-06T05:52:14.916Z,14.03
2022-12-06T05:54:42.401Z,13.93
2022-12-06T05:57:10.313Z,14.27
2022-12-06T05:59:37.859Z,14.43
2022-12-06T06:02:05.676Z,14.40
2022-12-06T06:04:34.990Z,14.60
2022-12-06T06:07:02.812Z,14.73
2022-12-06T06:09:30.377Z,14.48
2022-12-06T06:11:57.945Z,14.63
2022-12-06T06:14:25.392Z,13.97
2022-12-06T06:16:53.196Z,14.10
2022-12-06T06:19:23.392Z,12.67
2022-12-06T06:21:52.327Z,14.10
2022-12-06T06:24:19.946Z,14.53
2022-12-06T06:26:47.529Z,14.90
2022-12-06T06:29:15.608Z,15.47
2022-12-06T06:31:43.796Z,14.53
2022-12-06T06:34:11.612Z,14.67
2022-12-06T06:36:44.108Z,15.57
2022-12-06T06:39:14.886Z,14.27
2022-12-06T06:41:42.397Z,14.63
2022-12-06T06:44:10.078Z,14.38
2022-12-06T06:46:37.780Z,18.30
2022-12-06T06:49:05.945Z,23.27
2022-12-06T06:51:34.221Z,20.40
2022-12-06T06:54:01.871Z,16.87
2022-12-06T06:56:31.657Z,14.83
2022-12-06T06:58:59.221Z,15.67
2022-12-06T07:01:27.431Z,16.53
2022-12-06T07:03:55.183Z,15.73
2022-12-06T07:06:22.718Z,13.98
2022-12-06T07:08:50.618Z,14.93
2022-12-06T07:11:18.341Z,14.17
2022-12-06T07:13:52.557Z,14.30
2022-12-06T07:16:20.898Z,14.52
2022-12-06T07:18:48.604Z,15.20
2022-12-06T07:21:17.293Z,14.80
2022-12-06T07:35:00.927Z,15.93
2022-12-06T07:37:39.116Z,17.67
2022-12-06T07:40:07.931Z,17.77
2022-12-06T07:50:25.412Z,16.57
2022-12-06T07:53:05.893Z,17.87
2022-12-06T07:55:44.060Z,16.40
2022-12-06T07:58:45.545Z,17.63
2022-12-06T08:02:01.865Z,17.20
2022-12-06T08:04:48.303Z,16.57
2022-12-06T08:07:31.099Z,17.57
2022-12-06T08:10:10.869Z,17.95
2022-12-06T08:16:05.895Z,19.47
2022-12-06T08:18:34.250Z,18.10
2022-12-06T08:21:01.947Z,16.73
2022-12-06T08:23:40.968Z,15.77
2022-12-06T08:29:30.909Z,15.80
2022-12-06T08:32:36.513Z,16.95
2022-12-06T08:35:43.769Z,16.08
2022-12-06T08:38:37.122Z,16.08
2022-12-06T08:41:33.773Z,15.98
2022-12-06T08:44:53.134Z,15.48
2022-12-06T08:47:44.428Z,14.95
2022-12-06T08:50:42.459Z,15.32
2022-12-06T08:54:18.320Z,14.20
2022-12-06T08:56:56.578Z,11.90
2022-12-06T09:03:19.413Z,9.95
2022-12-06T09:06:38.585Z,11.70
2022-12-06T09:10:16.838Z,11.20
2022-12-06T09:13:29.936Z,10.13
2022-12-06T09:20:05.474Z,8.20
2022-12-06T09:22:45.676Z,9.00
2022-12-06T09:25:14.635Z,9.55
2022-12-06T11:42:58.439Z,8.85
2022-12-06T11:45:28.624Z,9.77
2022-12-06T11:47:56.893Z,9.20
2022-12-06T11:50:26.020Z,7.90
2022-12-06T11:52:55.733Z,9.80
2022-12-06T11:55:56.912Z,9.30
2022-12-06T11:58:28.006Z,9.63
2022-12-06T12:01:01.971Z,10.60
2022-12-06T12:03:30.695Z,11.52
2022-12-06T12:06:16.416Z,11.27
2022-12-06T12:08:51.945Z,11.97
2022-12-06T12:11:20.673Z,10.00
2022-12-06T12:13:51.211Z,9.05
2022-12-06T12:16:21.624Z,8.50
2022-12-06T12:18:54.950Z,8.07
2022-12-06T12:21:33.570Z,6.93
2022-12-06T12:24:01.144Z,8.02
2022-12-06T12:26:39.981Z,7.18
2022-12-06T12:29:15.481Z,8.30
2022-12-06T12:31:54.388Z,6.80
2022-12-06T12:34:22.612Z,6.47
2022-12-06T12:36:51.284Z,6.03
2022-12-06T12:39:27.365Z,7.20
2022-12-06T12:41:55.053Z,6.40
2022-12-06T12:44:40.119Z,6.32
2022-12-06T12:47:16.793Z,6.10
2022-12-06T12:49:44.423Z,6.85
2022-12-06T12:52:27.459Z,6.73
2022-12-06T12:55:00.066Z,7.07
2022-12-06T12:57:27.780Z,7.93
2022-12-06T12:59:55.408Z,7.63
2022-12-06T13:02:27.037Z,8.38
2022-12-06T13:05:17.212Z,7.80
2022-12-06T13:07:46.237Z,8.10
2022-12-06T13:10:19.309Z,7.83
2022-12-06T13:12:48.347Z,7.35
2022-12-06T13:15:18.070Z,8.00
2022-12-06T13:17:50.264Z,7.70
2022-12-06T13:20:22.925Z,7.47
2022-12-06T13:22:52.281Z,7.03
2022-12-06T13:25:20.348Z,6.93
2022-12-06T13:27:49.836Z,6.70
2022-12-06T13:30:19.993Z,6.27
2022-12-06T13:32:51.164Z,7.60
2022-12-06T13:35:24.794Z,6.77
2022-12-06T13:37:53.708Z,6.87
2022-12-06T13:40:36.175Z,8.23
2022-12-06T13:43:05.399Z,8.03
2022-12-06T13:45:41.220Z,7.47
2022-12-06T13:48:26.761Z,6.70
2022-12-06T13:50:57.053Z,7.13
2022-12-06T13:53:25.356Z,7.63
2022-12-06T13:55:59.158Z,6.57
2022-12-06T13:58:49.473Z,7.68
2022-12-06T14:01:50.565Z,7.30
2022-12-06T14:04:37.955Z,6.78
2022-12-06T14:09:42.621Z,7.37
2022-12-06T14:12:16.406Z,7.28
2022-12-06T14:14:55.007Z,7.60
2022-12-06T14:17:59.195Z,7.70
2022-12-06T14:20:19.831Z,7.10
2022-12-06T14:22:49.152Z,7.13
2022-12-06T14:25:20.733Z,7.17
2022-12-06T14:27:49.486Z,6.43
2022-12-06T14:30:23.518Z,7.30
2022-12-06T14:32:53.805Z,7.03
2022-12-06T14:35:24.034Z,6.55
2022-12-06T14:37:54.193Z,6.65
2022-12-06T14:40:45.199Z,6.93
2022-12-06T14:43:14.421Z,6.55
2022-12-06T14:45:42.643Z,7.33
2022-12-06T14:48:11.918Z,7.63
2022-12-06T14:50:41.587Z,6.18
2022-12-06T14:53:13.140Z,6.03
2022-12-06T14:55:52.543Z,5.95
2022-12-06T14:58:22.120Z,10.07
2022-12-06T15:00:52.270Z,6.75
2022-12-06T15:03:25.472Z,6.75
2022-12-06T15:06:09.224Z,7.70
2022-12-06T15:08:39.523Z,8.00
2022-12-06T15:11:36.631Z,7.00
2022-12-06T15:14:14.376Z,7.45
2022-12-06T15:16:42.273Z,6.55
2022-12-06T15:19:12.863Z,7.37
2022-12-06T15:21:40.722Z,7.15
2022-12-06T15:24:16.002Z,6.80
2022-12-06T15:26:43.603Z,6.93
2022-12-06T15:29:11.218Z,6.83
2022-12-06T15:31:39.314Z,7.22
2022-12-06T15:34:20.204Z,8.45
2022-12-06T15:36:47.848Z,7.23
2022-12-06T15:39:16.768Z,7.50
2022-12-06T15:41:44.355Z,6.87
2022-12-06T15:44:13.540Z,6.83
2022-12-06T15:46:41.228Z,7.10
2022-12-06T15:49:09.721Z,6.55
2022-12-06T15:51:37.258Z,7.63
2022-12-06T15:54:06.902Z,7.28
2022-12-06T15:56:36.016Z,7.32
2022-12-06T15:59:03.600Z,7.27
2022-12-06T16:01:34.504Z,8.30
2022-12-06T16:04:03.273Z,7.63
2022-12-06T16:06:30.809Z,7.85
2022-12-06T16:08:58.345Z,8.32
2022-12-06T16:11:27.253Z,7.47
2022-12-06T16:13:56.150Z,7.67
2022-12-06T16:16:23.764Z,7.57
2022-12-06T16:18:51.956Z,7.80
2022-12-06T16:21:20.751Z,9.48
2022-12-06T16:24:12.992Z,9.40
2022-12-06T16:26:44.110Z,8.25
2022-12-06T16:29:13.957Z,7.73
2022-12-06T16:31:42.330Z,7.93
2022-12-06T16:34:10.110Z,8.30
2022-12-06T16:36:54.241Z,8.87
2022-12-06T16:39:22.298Z,12.17
2022-12-06T16:41:49.881Z,8.55
2022-12-06T16:44:21.065Z,8.18
2022-12-06T16:46:48.849Z,8.67
2022-12-06T16:52:06.389Z,8.93
2022-12-06T16:54:33.969Z,7.90
2022-12-06T16:57:01.607Z,9.23
2022-12-06T16:59:30.608Z,8.73
2022-12-06T17:01:58.264Z,8.10
2022-12-06T17:04:26.772Z,8.00
2022-12-06T17:06:54.355Z,7.63
2022-12-06T17:09:21.920Z,9.00
2022-12-06T17:12:06.736Z,8.00
2022-12-06T17:14:37.948Z,7.07
2022-12-06T17:17:05.543Z,7.60
2022-12-06T17:19:34.428Z,9.60
2022-12-06T17:22:02.515Z,7.37
2022-12-06T17:24:30.853Z,7.13
2022-12-06T17:26:58.995Z,8.43
2022-12-06T17:29:26.606Z,7.80
2022-12-06T17:31:56.048Z,8.77
2022-12-06T17:34:25.655Z,7.87
2022-12-06T17:36:53.290Z,7.77
2022-12-06T17:39:21.835Z,7.55
2022-12-06T17:42:07.447Z,8.07
2022-12-06T17:44:35.463Z,8.50
2022-12-06T17:47:04.532Z,8.73
2022-12-06T17:49:36.253Z,10.20
2022-12-06T17:52:04.130Z,7.30
2022-12-06T17:54:31.688Z,8.63
2022-12-06T17:56:59.273Z,7.75
2022-12-06T17:59:28.636Z,6.70
2022-12-06T18:02:15.338Z,8.37
2022-12-06T18:04:45.202Z,9.83
2022-12-06T18:07:13.169Z,13.10
2022-12-06T18:09:46.842Z,8.93
2022-12-06T18:12:15.405Z,8.43
2022-12-06T18:14:43.087Z,7.43
2022-12-06T18:17:10.740Z,6.93
2022-12-06T18:19:38.412Z,8.90
2022-12-06T18:22:07.798Z,8.00
2022-12-06T18:24:36.288Z,6.90
2022-12-06T18:27:04.897Z,8.23
2022-12-06T18:29:32.503Z,7.63
2022-12-06T18:32:00.209Z,7.47
2022-12-06T18:34:27.992Z,6.60
2022-12-06T18:36:55.648Z,6.57
2022-12-06T18:39:25.399Z,6.60
2022-12-06T18:41:53.650Z,6.50
2022-12-06T18:44:21.230Z,6.90
2022-12-06T18:46:48.911Z,7.97
2022-12-06T18:49:16.508Z,6.80
2022-12-06T18:51:44.131Z,7.90
2022-12-06T18:54:13.568Z,6.57
2022-12-06T18:56:43.079Z,7.25
2022-12-06T18:59:12.173Z,6.43
2022-12-06T19:01:40.740Z,7.30
2022-12-06T19:04:11.424Z,7.93
2022-12-06T19:06:40.618Z,7.18
2022-12-06T19:09:09.908Z,7.00
2022-12-06T19:11:39.630Z,7.18
2022-12-06T19:14:08.919Z,7.75
2022-12-06T19:16:38.174Z,6.95
2022-12-06T19:19:11.257Z,6.45
2022-12-06T19:21:43.788Z,7.23
2022-12-06T19:24:12.060Z,6.83
2022-12-06T19:26:39.866Z,6.77
2022-12-06T19:29:08.817Z,6.40
2022-12-06T19:31:36.464Z,6.90
2022-12-06T19:34:04.200Z,6.80
2022-12-06T19:36:32.615Z,5.97
2022-12-06T19:39:01.368Z,6.43
2022-12-06T19:41:28.999Z,6.47
2022-12-06T19:44:14.001Z,6.47
2022-12-06T19:46:43.888Z,5.82
2022-12-06T19:49:12.003Z,5.65
2022-12-06T19:51:40.950Z,5.83
2022-12-06T19:54:08.984Z,5.80
2022-12-06T19:56:36.945Z,6.67
2022-12-06T19:59:11.438Z,5.97
2022-12-06T20:01:39.732Z,6.13
2022-12-06T20:04:09.054Z,6.20
2022-12-06T20:06:36.967Z,6.47
2022-12-06T20:09:05.055Z,7.00
2022-12-06T20:11:50.356Z,6.50
2022-12-06T20:14:18.808Z,7.88
2022-12-06T20:16:46.661Z,6.63
2022-12-06T20:19:16.506Z,8.10
2022-12-06T20:21:44.518Z,8.03
2022-12-06T20:24:12.604Z,9.40
2022-12-06T20:26:40.282Z,11.48
2022-12-06T20:29:08.406Z,7.50
2022-12-06T20:31:36.322Z,7.40
2022-12-06T20:34:07.867Z,7.90
2022-12-06T20:36:40.495Z,11.13
2022-12-06T20:39:08.321Z,10.17
2022-12-06T20:41:36.017Z,10.13
2022-12-06T20:44:03.776Z,10.07
2022-12-06T20:46:32.515Z,9.93
2022-12-06T20:49:02.616Z,7.97
2022-12-06T20:51:31.440Z,8.43
2022-12-06T20:54:01.300Z,7.38
2022-12-06T20:56:30.331Z,7.30
2022-12-06T20:58:58.898Z,6.80
2022-12-06T21:01:27.500Z,7.17
2022-12-06T21:03:55.506Z,6.90
2022-12-06T21:06:23.795Z,8.10
2022-12-06T21:08:51.636Z,12.70
2022-12-06T21:11:23.096Z,14.05
2022-12-06T21:13:51.778Z,8.88
2022-12-06T21:16:20.026Z,8.52
2022-12-06T21:18:49.397Z,11.52
2022-12-06T21:21:27.021Z,8.68
2022-12-06T21:23:54.661Z,9.10
2022-12-06T21:26:23.608Z,9.80
2022-12-06T21:28:52.631Z,10.80
2022-12-06T21:31:20.434Z,9.73
2022-12-06T21:33:48.020Z,9.05
2022-12-06T21:36:15.703Z,8.73
2022-12-06T21:38:43.286Z,8.17
2022-12-06T21:41:12.628Z,7.53
2022-12-06T21:43:41.676Z,8.47
2022-12-06T21:46:11.027Z,7.57
2022-12-06T21:48:39.342Z,7.90
2022-12-06T21:51:08.078Z,7.50
2022-12-06T21:53:36.138Z,7.57
2022-12-06T21:56:06.505Z,6.72
2022-12-06T21:58:36.750Z,7.23
2022-12-06T22:01:08.384Z,7.60
2022-12-06T22:03:36.351Z,7.73
2022-12-06T22:06:07.225Z,13.85
2022-12-06T22:08:34.810Z,13.00
2022-12-06T22:11:02.408Z,8.20
2022-12-06T22:13:29.932Z,7.88
2022-12-06T22:16:01.650Z,7.38
2022-12-06T22:18:30.653Z,7.53
2022-12-06T22:20:59.327Z,7.50
2022-12-06T22:23:26.909Z,8.93
2022-12-06T22:25:54.557Z,8.70
2022-12-06T22:28:22.094Z,8.40
2022-12-06T22:30:49.814Z,7.90
2022-12-06T22:33:17.447Z,7.40
2022-12-06T22:35:46.425Z,7.82
2022-12-06T22:38:13.982Z,8.00
2022-12-06T22:40:41.515Z,7.82
2022-12-06T22:43:09.335Z,8.35
2022-12-06T22:45:36.948Z,7.40
2022-12-06T22:48:04.602Z,8.27
2022-12-06T22:50:43.543Z,7.10
2022-12-06T22:53:12.422Z,6.28
2022-12-06T22:55:40.142Z,8.07
2022-12-06T22:58:07.773Z,7.88
2022-12-06T23:00:35.366Z,7.40
2022-12-06T23:03:02.860Z,8.20
2022-12-06T23:05:30.411Z,7.05
2022-12-06T23:07:58.019Z,7.35
2022-12-06T23:10:26.950Z,9.02
2022-12-06T23:12:54.488Z,7.20
2022-12-06T23:15:22.128Z,7.28
2022-12-06T23:17:49.701Z,7.85
2022-12-06T23:20:17.288Z,7.97
2022-12-06T23:22:44.806Z,7.50
2022-12-06T23:25:12.385Z,7.80
2022-12-06T23:27:41.293Z,6.88
2022-12-06T23:30:09.630Z,7.63
2022-12-06T23:32:37.179Z,7.22
2022-12-06T23:35:04.834Z,7.90
2022-12-06T23:37:32.405Z,7.60
2022-12-06T23:40:00.231Z,7.78
2022-12-06T23:42:29.234Z,7.80
2022-12-06T23:45:01.150Z,7.90
2022-12-06T23:47:29.238Z,7.88
2022-12-06T23:49:57.567Z,7.55
2022-12-06T23:52:26.314Z,7.55
2022-12-06T23:54:55.487Z,8.60
2022-12-06T23:57:25.097Z,8.27
2022-12-06T23:59:53.101Z,7.80
